Time;durP1;ratioP1;P1;durP2;ratioP2;P2;SDS_P1;SDS_P2;PMS_P1;PMS_P2;Temp;Humidity;BMP_temperature;BMP_pressure;BME280_temperature;BME280_humidity;BME280_pressure;Samples;Min_cycle;Max_cycle;Signal;HPM_P1;HPM_P2
2020/12/20 00:02:17;;;;;;;17.67;11.75;;;;;;;12.41;65.68;101329.63;5070935;28;20032;-81
2020/12/20 00:04:43;;;;;;;17.52;12.20;;;;;;;12.30;66.35;101333.72;5064807;28;20453;-81
2020/12/20 00:07:08;;;;;;;15.00;10.73;;;;;;;12.35;66.10;101323.06;5074779;28;20039;-82
2020/12/20 00:09:34;;;;;;;15.40;11.32;;;;;;;12.25;66.51;101317.06;5069105;28;20032;-81
2020/12/20 00:11:59;;;;;;;19.13;11.38;;;;;;;12.41;66.09;101326.88;5068084;28;20063;-82
2020/12/20 00:14:27;;;;;;;17.25;11.02;;;;;;;12.41;65.72;101319.53;5065786;28;20034;-83
2020/12/20 00:17:04;;;;;;;19.88;11.60;;;;;;;12.40;65.77;101322.47;5066673;28;20047;-81
2020/12/20 00:19:30;;;;;;;16.80;10.63;;;;;;;12.39;65.74;101327.09;5046237;28;20144;-83
2020/12/20 00:21:59;;;;;;;17.80;12.85;;;;;;;12.47;65.41;101334.28;5071230;28;20386;-82
2020/12/20 00:24:24;;;;;;;15.85;10.50;;;;;;;12.37;65.71;101329.16;5069639;28;20031;-81
2020/12/20 00:26:50;;;;;;;21.95;12.50;;;;;;;12.34;65.86;101318.63;5067730;28;20024;-82
2020/12/20 00:29:16;;;;;;;20.52;10.30;;;;;;;12.38;65.67;101330.00;5041954;28;20028;-82
2020/12/20 00:31:41;;;;;;;19.33;13.07;;;;;;;12.41;65.60;101322.25;5066603;28;20495;-81
2020/12/20 00:34:07;;;;;;;24.73;11.90;;;;;;;12.44;65.64;101334.69;5058882;28;20024;-80
2020/12/20 00:36:33;;;;;;;15.07;10.23;;;;;;;12.18;65.77;101334.22;5068279;28;20093;-81
2020/12/20 00:38:58;;;;;;;21.67;11.65;;;;;;;12.31;66.02;101329.94;5071545;28;20024;-80
2020/12/20 00:41:24;;;;;;;22.70;12.57;;;;;;;12.30;66.05;101329.09;5051202;28;20055;-81
2020/12/20 00:43:49;;;;;;;18.92;10.70;;;;;;;12.18;66.79;101330.66;5049187;28;20680;-83
2020/12/20 00:46:15;;;;;;;15.93;10.30;;;;;;;12.12;67.42;101329.53;5065253;28;20063;-81
2020/12/20 00:48:42;;;;;;;15.35;11.30;;;;;;;12.18;67.26;101341.56;5065347;28;20037;-82
2020/12/20 00:51:07;;;;;;;16.90;11.77;;;;;;;12.18;67.25;101336.94;5047917;28;20482;-82
2020/12/20 00:53:32;;;;;;;18.40;11.30;;;;;;;12.23;66.99;101340.97;5064950;28;20029;-81
2020/12/20 00:55:58;;;;;;;20.58;12.57;;;;;;;12.27;66.87;101345.84;5047264;28;20037;-82
2020/12/20 00:58:23;;;;;;;23.52;11.90;;;;;;;12.28;66.98;101341.22;5047874;28;20348;-83
2020/12/20 01:00:49;;;;;;;18.90;11.18;;;;;;;12.26;67.05;101351.50;5047799;28;20057;-83
2020/12/20 01:03:16;;;;;;;16.00;11.20;;;;;;;12.20;67.02;101339.47;5067907;28;20394;-84
2020/12/20 01:05:42;;;;;;;19.02;12.27;;;;;;;12.20;67.15;101341.38;5081450;28;20479;-82
2020/12/20 01:08:09;;;;;;;20.67;12.00;;;;;;;12.32;66.87;101348.81;5064586;28;20039;-82
2020/12/20 01:10:35;;;;;;;21.65;11.70;;;;;;;12.20;67.31;101338.63;5052567;28;20580;-84
2020/12/20 01:13:01;;;;;;;14.40;10.50;;;;;;;12.24;67.34;101345.41;5067656;28;20035;-83
2020/12/20 01:15:29;;;;;;;19.05;10.73;;;;;;;12.28;67.09;101347.53;5032870;28;20025;-82
2020/12/20 01:17:55;;;;;;;21.05;9.80;;;;;;;12.26;66.88;101349.59;5036585;28;20044;-82
2020/12/20 01:20:21;;;;;;;18.25;10.25;;;;;;;12.40;66.77;101356.03;5066472;28;20035;-84
2020/12/20 01:22:47;;;;;;;18.65;10.55;;;;;;;12.35;66.62;101344.88;5068354;28;20033;-81
2020/12/20 01:25:12;;;;;;;20.40;11.05;;;;;;;12.32;67.08;101350.72;5067597;28;20378;-81
2020/12/20 01:27:37;;;;;;;21.05;10.57;;;;;;;12.33;66.82;101349.69;5068394;28;20048;-84
2020/12/20 01:30:03;;;;;;;21.70;11.93;;;;;;;12.30;67.32;101358.25;5068199;28;20024;-83
2020/12/20 01:32:28;;;;;;;22.20;11.52;;;;;;;12.26;67.12;101354.22;5066787;28;20387;-83
2020/12/20 01:34:54;;;;;;;19.10;12.68;;;;;;;12.31;66.90;101358.06;5065677;28;20789;-82
2020/12/20 01:37:19;;;;;;;24.73;11.43;;;;;;;12.38;67.07;101358.13;5066577;28;20028;-82
2020/12/20 01:39:44;;;;;;;24.90;12.50;;;;;;;12.55;65.96;101361.41;5063868;28;20035;-83
2020/12/20 01:42:10;;;;;;;23.85;11.73;;;;;;;12.50;65.81;101356.56;5068554;28;20913;-83
2020/12/20 01:44:39;;;;;;;22.33;14.18;;;;;;;12.56;66.08;101365.84;5077662;28;20029;-82
2020/12/20 01:47:05;;;;;;;16.40;12.70;;;;;;;12.43;66.25;101371.16;5067177;28;20570;-83
2020/12/20 01:49:30;;;;;;;19.88;11.35;;;;;;;12.45;66.36;101372.69;5070357;28;20024;-83
2020/12/20 01:51:56;;;;;;;23.05;13.25;;;;;;;12.47;66.30;101367.03;5066910;28;20044;-83
2020/12/20 01:54:22;;;;;;;19.60;12.25;;;;;;;12.49;66.21;101371.22;5052076;28;20036;-83
2020/12/20 01:56:47;;;;;;;19.90;12.75;;;;;;;12.45;66.52;101361.75;5067932;28;20036;-83
2020/12/20 01:59:13;;;;;;;14.27;10.20;;;;;;;12.52;66.29;101370.81;5064107;28;20085;-81
2020/12/20 02:01:38;;;;;;;24.42;11.95;;;;;;;12.49;66.42;101363.03;5070311;28;20482;-82
2020/12/20 02:04:04;;;;;;;18.98;11.98;;;;;;;12.52;66.85;101365.38;5068028;28;20509;-82
2020/12/20 02:06:29;;;;;;;22.30;10.70;;;;;;;12.59;66.62;101372.78;5070778;28;20028;-82
2020/12/20 02:08:55;;;;;;;19.48;11.00;;;;;;;12.50;67.05;101362.00;5066901;28;20666;-82
2020/12/20 02:11:20;;;;;;;25.60;10.55;;;;;;;12.69;66.49;101371.41;5071531;28;20044;-84
2020/12/20 02:13:48;;;;;;;20.25;10.02;;;;;;;12.54;67.13;101371.50;5068336;28;20056;-83
2020/12/20 02:16:15;;;;;;;21.55;9.70;;;;;;;12.67;66.97;101369.91;5073897;28;20025;-83
2020/12/20 02:18:41;;;;;;;23.40;11.70;;;;;;;12.69;66.64;101365.94;5073588;28;20036;-82
2020/12/20 02:21:23;;;;;;;23.15;11.05;;;;;;;12.70;66.66;101366.81;5068279;28;20107;-83
2020/12/20 02:23:50;;;;;;;17.10;10.25;;;;;;;12.63;67.07;101354.97;5070678;28;20041;-82
2020/12/20 02:26:21;;;;;;;16.30;11.35;;;;;;;12.83;66.19;101369.63;5068110;28;20112;-82
2020/12/20 02:28:51;;;;;;;21.25;10.50;;;;;;;12.81;66.57;101365.41;5070604;28;20047;-83
2020/12/20 02:31:16;;;;;;;22.63;9.18;;;;;;;12.86;65.84;101360.19;5072222;28;20028;-83
2020/12/20 02:33:42;;;;;;;19.83;10.25;;;;;;;12.92;65.88;101361.28;5074641;28;20051;-83
2020/12/20 02:36:07;;;;;;;21.08;9.40;;;;;;;12.86;65.84;101358.28;5074534;28;20070;-83
2020/12/20 02:38:33;;;;;;;24.98;9.60;;;;;;;12.82;66.04;101350.69;5081602;28;20029;-82
2020/12/20 02:40:58;;;;;;;19.83;8.77;;;;;;;12.92;66.08;101364.84;5053170;28;20063;-83
2020/12/20 02:43:25;;;;;;;19.02;9.20;;;;;;;12.70;66.58;101354.00;5071938;28;20094;-82
2020/12/20 02:45:50;;;;;;;18.40;10.35;;;;;;;12.93;66.29;101365.69;5068833;28;20044;-85
2020/12/20 02:48:16;;;;;;;22.00;9.73;;;;;;;12.98;65.96;101363.22;5059592;28;20056;-83
2020/12/20 02:50:41;;;;;;;16.08;8.98;;;;;;;13.01;65.57;101362.81;5067622;28;20017;-83
2020/12/20 02:53:06;;;;;;;19.40;9.18;;;;;;;12.95;66.23;101369.09;5075502;28;20810;-83
2020/12/20 02:55:32;;;;;;;22.88;9.15;;;;;;;13.01;65.73;101362.81;5071515;28;20047;-83
2020/12/20 02:57:57;;;;;;;18.08;8.65;;;;;;;13.04;65.71;101365.16;5072108;28;20036;-82
2020/12/20 03:00:23;;;;;;;14.02;9.23;;;;;;;13.03;65.68;101364.28;5078128;28;20032;-83
2020/12/20 03:02:48;;;;;;;20.88;8.82;;;;;;;13.02;65.62;101364.50;5070800;28;20051;-84
2020/12/20 03:05:14;;;;;;;18.02;9.32;;;;;;;13.07;65.45;101359.28;5069064;28;20028;-84
2020/12/20 03:07:39;;;;;;;17.45;8.20;;;;;;;13.02;65.47;101359.03;5070901;28;20093;-83
2020/12/20 03:10:05;;;;;;;15.75;8.52;;;;;;;13.04;64.99;101356.97;5072465;28;20077;-84
2020/12/20 03:12:31;;;;;;;19.90;8.57;;;;;;;12.94;65.72;101367.38;5068574;28;20509;-85
2020/12/20 03:14:56;;;;;;;17.55;8.68;;;;;;;13.04;65.37;101367.88;5080383;28;20073;-83
2020/12/20 03:17:21;;;;;;;17.90;7.97;;;;;;;13.04;65.57;101368.72;5052951;28;20123;-82
2020/12/20 03:19:48;;;;;;;17.38;8.23;;;;;;;13.01;65.36;101366.38;5069789;28;20037;-83
2020/12/20 03:22:14;;;;;;;20.95;8.25;;;;;;;13.02;65.11;101359.03;5066993;28;20035;-82
2020/12/20 03:24:40;;;;;;;16.02;7.18;;;;;;;12.97;65.62;101370.56;5073665;28;20033;-82
2020/12/20 03:27:05;;;;;;;18.10;8.30;;;;;;;12.98;65.12;101364.06;5071012;28;20105;-83
2020/12/20 03:29:30;;;;;;;17.10;8.60;;;;;;;12.94;65.54;101372.84;5067724;28;20036;-82
2020/12/20 03:31:56;;;;;;;19.00;8.50;;;;;;;12.95;64.69;101367.19;5059267;28;20043;-82
2020/12/20 03:34:21;;;;;;;14.55;7.85;;;;;;;12.87;65.30;101367.34;5069404;28;20036;-83
2020/12/20 03:36:46;;;;;;;20.95;8.30;;;;;;;12.80;65.55;101371.91;5076025;28;20033;-82
2020/12/20 03:39:12;;;;;;;19.45;9.30;;;;;;;12.88;65.36;101378.06;5072064;28;20055;-83
2020/12/20 03:41:37;;;;;;;21.40;8.02;;;;;;;12.80;65.53;101371.91;5070210;28;20024;-81
2020/12/20 03:44:03;;;;;;;13.65;8.65;;;;;;;12.87;65.57;101373.66;5067742;28;20052;-82
2020/12/20 03:46:28;;;;;;;19.08;7.65;;;;;;;12.82;65.59;101367.94;5058818;28;20611;-81
2020/12/20 03:48:53;;;;;;;15.55;9.10;;;;;;;12.85;65.13;101375.75;5067456;28;20056;-81
2020/12/20 03:51:19;;;;;;;20.23;9.57;;;;;;;12.94;64.80;101375.56;5072051;28;20044;-81
2020/12/20 03:53:44;;;;;;;13.88;7.90;;;;;;;12.88;64.77;101383.53;5057834;28;20051;-82
2020/12/20 03:56:10;;;;;;;16.65;8.00;;;;;;;12.83;64.59;101383.25;5074051;28;20024;-82
2020/12/20 03:58:35;;;;;;;19.65;8.27;;;;;;;12.72;64.84;101381.09;5076751;28;20438;-81
2020/12/20 04:01:01;;;;;;;15.63;7.88;;;;;;;12.61;65.11;101377.00;5068057;28;20043;-82
2020/12/20 04:03:26;;;;;;;18.70;7.35;;;;;;;12.73;65.14;101385.50;5062190;28;20047;-82
2020/12/20 04:05:52;;;;;;;17.05;8.82;;;;;;;12.67;65.09;101383.56;5067673;28;20024;-83
2020/12/20 04:08:17;;;;;;;17.63;7.63;;;;;;;12.62;65.23;101383.28;5081339;28;20033;-82
2020/12/20 04:10:42;;;;;;;15.05;7.78;;;;;;;12.69;64.86;101376.84;5070814;28;20024;-83
2020/12/20 04:13:08;;;;;;;18.13;7.90;;;;;;;12.64;64.86;101382.06;5070950;28;20044;-82
2020/12/20 04:15:34;;;;;;;11.05;6.60;;;;;;;12.65;64.63;101374.72;5070382;28;20032;-82
2020/12/20 04:17:59;;;;;;;19.92;7.97;;;;;;;12.50;65.46;101369.34;5070629;28;20040;-81
2020/12/20 04:20:25;;;;;;;19.13;7.97;;;;;;;12.50;65.49;101381.09;5070058;28;20043;-82
2020/12/20 04:22:50;;;;;;;20.05;8.63;;;;;;;12.51;65.13;101371.03;5069438;28;20035;-82
2020/12/20 04:25:15;;;;;;;15.00;7.80;;;;;;;12.49;65.43;101364.94;5073243;28;20539;-82
2020/12/20 04:27:41;;;;;;;17.10;7.00;;;;;;;12.44;65.35;101368.25;5051592;28;20040;-82
2020/12/20 04:30:06;;;;;;;23.60;7.15;;;;;;;12.44;65.53;101370.97;5069227;28;20040;-82
2020/12/20 04:32:32;;;;;;;16.23;7.32;;;;;;;12.45;65.12;101378.13;5068501;28;20024;-82
2020/12/20 04:34:57;;;;;;;14.70;8.07;;;;;;;12.51;64.88;101369.16;5070452;28;20036;-82
2020/12/20 04:37:22;;;;;;;14.52;7.45;;;;;;;12.45;64.54;101375.41;5069176;28;20085;-82
2020/12/20 04:39:48;;;;;;;16.55;7.75;;;;;;;12.36;64.94;101382.03;5072776;28;20033;-82
2020/12/20 04:42:13;;;;;;;19.35;7.82;;;;;;;12.34;64.90;101389.53;5067028;28;20033;-82
2020/12/20 04:44:39;;;;;;;20.77;8.95;;;;;;;12.26;65.11;101384.22;5074123;28;20409;-82
2020/12/20 04:47:06;;;;;;;22.60;7.13;;;;;;;12.21;65.45;101389.44;5072102;28;20041;-82
2020/12/20 04:49:32;;;;;;;19.73;7.90;;;;;;;12.24;65.63;101394.50;5067382;28;20386;-83
2020/12/20 04:51:59;;;;;;;23.10;7.97;;;;;;;12.20;65.69;101393.19;5069441;28;20036;-82
2020/12/20 04:54:25;;;;;;;18.60;8.70;;;;;;;12.05;66.45;101399.53;5066535;28;20071;-82
2020/12/20 04:56:50;;;;;;;12.40;6.95;;;;;;;12.11;66.10;101393.31;5080332;28;20486;-84
2020/12/20 04:59:17;;;;;;;21.77;9.05;;;;;;;12.05;66.36;101385.91;5067359;28;20072;-82
2020/12/20 05:01:43;;;;;;;17.70;7.25;;;;;;;12.11;66.20;101384.25;5071858;28;20032;-82
2020/12/20 05:04:08;;;;;;;13.88;7.45;;;;;;;12.12;65.91;101383.25;5069142;28;20562;-83
2020/12/20 05:06:34;;;;;;;13.45;7.75;;;;;;;12.13;65.74;101388.50;5059453;28;20495;-82
2020/12/20 05:09:09;;;;;;;29.00;9.70;;;;;;;12.04;66.19;101388.81;5061522;28;20036;-82
2020/12/20 05:11:44;;;;;;;15.38;9.30;;;;;;;12.08;65.92;101390.09;5065463;28;20430;-82
2020/12/20 05:14:13;;;;;;;20.73;9.23;;;;;;;12.00;66.22;101396.53;5054156;28;20059;-81
2020/12/20 05:16:40;;;;;;;22.80;7.97;;;;;;;11.96;66.61;101400.69;5073692;28;20020;-82
2020/12/20 05:19:08;;;;;;;21.13;9.32;;;;;;;12.07;66.47;101397.44;5071991;28;20047;-83
2020/12/20 05:21:34;;;;;;;19.92;8.32;;;;;;;12.03;66.60;101398.88;5068172;28;20075;-83
2020/12/20 05:24:20;;;;;;;17.23;7.63;;;;;;;12.07;66.55;101400.19;5079131;28;20059;-82
2020/12/20 05:26:46;;;;;;;23.25;10.85;;;;;;;11.97;67.03;101399.63;5067158;28;20684;-83
2020/12/20 05:29:13;;;;;;;21.02;8.32;;;;;;;11.98;66.78;101404.88;5072912;28;20112;-82
2020/12/20 05:31:38;;;;;;;20.92;8.02;;;;;;;11.82;67.22;101403.22;5069539;28;20032;-81
2020/12/20 05:34:05;;;;;;;20.15;10.07;;;;;;;11.99;66.91;101392.13;5076612;28;20040;-83
2020/12/20 05:36:31;;;;;;;22.63;9.30;;;;;;;12.04;66.66;101395.09;5068969;28;20051;-82
2020/12/20 05:39:19;;;;;;;16.98;8.27;;;;;;;12.07;66.55;101391.16;5055250;28;20044;-83
2020/12/20 05:41:46;;;;;;;22.92;10.32;;;;;;;11.89;66.93;101394.28;5069689;28;20067;-83
2020/12/20 05:44:20;;;;;;;22.30;8.52;;;;;;;12.03;66.58;101403.47;5052021;28;20043;-83
2020/12/20 05:46:47;;;;;;;19.25;8.40;;;;;;;11.91;67.04;101405.81;5069558;28;20032;-81
2020/12/20 05:49:17;;;;;;;19.63;9.63;;;;;;;11.95;66.80;101418.06;5069708;28;20024;-82
2020/12/20 05:52:02;;;;;;;19.63;8.95;;;;;;;12.09;66.23;101409.00;5073252;28;20059;-82
2020/12/20 05:54:35;;;;;;;19.27;8.60;;;;;;;12.05;66.06;101418.63;5069249;28;20406;-82
2020/12/20 05:57:06;;;;;;;11.98;8.27;;;;;;;12.03;65.92;101414.38;5070720;28;20047;-83
2020/12/20 05:59:33;;;;;;;18.63;9.18;;;;;;;12.06;65.75;101409.38;5049087;28;20714;-82
2020/12/20 06:02:02;;;;;;;18.05;9.02;;;;;;;12.02;66.01;101402.66;5069313;28;20692;-82
2020/12/20 06:04:29;;;;;;;22.15;9.07;;;;;;;12.00;66.06;101401.97;5066513;28;20029;-81
2020/12/20 06:06:56;;;;;;;21.65;11.35;;;;;;;11.94;66.18;101403.59;5073663;28;20130;-83
2020/12/20 06:09:28;;;;;;;19.77;9.10;;;;;;;11.94;66.45;101411.78;5067611;28;20031;-82
2020/12/20 06:11:55;;;;;;;18.50;9.40;;;;;;;11.89;66.32;101413.34;5071172;28;20032;-82
2020/12/20 06:14:29;;;;;;;12.77;7.70;;;;;;;11.99;66.12;101417.50;5067538;28;20035;-82
2020/12/20 06:17:16;;;;;;;23.00;9.35;;;;;;;12.04;65.81;101414.19;5072082;28;20032;-82
2020/12/20 06:19:47;;;;;;;20.30;8.52;;;;;;;12.06;65.67;101403.94;5066511;28;20035;-82
2020/12/20 06:22:16;;;;;;;;;;;;;;;12.04;65.55;101406.00;5069715;28;20097;-83
2020/12/20 06:24:46;;;;;;;16.55;7.50;;;;;;;12.02;65.45;101416.28;5069409;28;19920;-82
2020/12/20 06:27:14;;;;;;;15.80;7.37;;;;;;;11.99;65.49;101417.50;5067263;28;20036;-83
2020/12/20 06:29:44;;;;;;;16.77;8.40;;;;;;;11.99;65.62;101416.66;5066981;28;20035;-83
2020/12/20 06:32:13;;;;;;;17.67;7.50;;;;;;;11.93;65.42;101414.69;5069009;28;20040;-83
2020/12/20 06:34:41;;;;;;;19.23;9.20;;;;;;;11.89;65.72;101418.81;5067813;28;20082;-82
2020/12/20 06:37:08;;;;;;;20.15;8.05;;;;;;;11.90;65.74;101415.88;5067508;28;20405;-82
2020/12/20 06:39:43;;;;;;;20.77;9.55;;;;;;;11.87;66.14;101418.16;5053567;28;20032;-82
2020/12/20 06:42:08;;;;;;;22.33;9.38;;;;;;;11.77;66.59;101416.56;5068003;28;20029;-83
2020/12/20 06:44:34;;;;;;;17.15;8.73;;;;;;;11.84;66.18;101411.19;5070076;28;20098;-82
2020/12/20 06:46:59;;;;;;;18.15;10.13;;;;;;;11.87;66.27;101427.16;5068406;28;20043;-82
2020/12/20 06:49:36;;;;;;;22.60;9.23;;;;;;;11.82;66.78;101425.00;5066034;28;20032;-82
2020/12/20 06:52:22;;;;;;;15.75;9.10;;;;;;;11.87;66.34;101426.34;5065676;28;20147;-83
2020/12/20 06:55:09;;;;;;;19.33;8.98;;;;;;;11.88;66.59;101434.31;5079631;28;20031;-82
2020/12/20 06:57:36;;;;;;;16.02;8.20;;;;;;;11.92;66.42;101434.78;5066946;28;20474;-81
2020/12/20 07:00:03;;;;;;;19.27;9.05;;;;;;;11.92;66.61;101440.22;5049963;28;20478;-82
2020/12/20 07:02:45;;;;;;;17.45;8.63;;;;;;;11.97;66.02;101432.34;5066846;28;20045;-82
2020/12/20 07:05:36;;;;;;;23.15;11.23;;;;;;;11.93;65.97;101440.06;5072135;28;20095;-82
2020/12/20 07:08:21;;;;;;;24.05;10.40;;;;;;;11.93;65.86;101439.22;5068685;28;20032;-82
2020/12/20 07:10:52;;;;;;;23.23;9.48;;;;;;;11.85;66.32;101442.88;5069748;28;20050;-82
2020/12/20 07:13:40;;;;;;;17.13;10.40;;;;;;;11.71;66.75;101443.72;5070011;28;20031;-83
2020/12/20 07:16:16;;;;;;;23.15;10.38;;;;;;;11.75;66.69;101447.75;5076036;28;20117;-82
2020/12/20 07:18:59;;;;;;;22.17;9.45;;;;;;;11.85;66.07;101440.16;5070979;28;20028;-81
2020/12/20 07:21:28;;;;;;;21.98;10.75;;;;;;;11.83;66.12;101455.81;5071270;28;20032;-82
2020/12/20 07:24:17;;;;;;;18.88;11.43;;;;;;;11.83;65.97;101448.50;5072803;28;20459;-81
2020/12/20 07:26:43;;;;;;;21.10;11.20;;;;;;;11.72;66.38;101451.69;5076668;28;20631;-82
2020/12/20 07:29:09;;;;;;;27.85;13.43;;;;;;;11.66;67.37;101452.44;5072344;28;20044;-82
2020/12/20 07:31:35;;;;;;;20.75;11.73;;;;;;;11.59;67.60;101449.66;5064767;28;20036;-81
2020/12/20 07:34:02;;;;;;;20.95;12.43;;;;;;;11.64;67.63;101459.97;5068845;28;20028;-82
2020/12/20 07:36:27;;;;;;;25.02;12.50;;;;;;;11.74;66.90;101460.56;5070012;28;20064;-82
2020/12/20 07:38:53;;;;;;;21.27;9.40;;;;;;;11.83;66.53;101464.88;5067157;28;20036;-81
2020/12/20 07:41:19;;;;;;;23.25;11.90;;;;;;;11.81;66.44;101460.63;5071230;28;20044;-82
2020/12/20 07:43:46;;;;;;;15.65;9.02;;;;;;;11.77;66.36;101470.22;5072362;28;20045;-81
2020/12/20 07:46:14;;;;;;;19.35;10.93;;;;;;;11.75;66.59;101473.13;5054256;28;20032;-82
2020/12/20 07:48:39;;;;;;;24.48;12.00;;;;;;;11.74;66.58;101471.44;5079604;28;20027;-81
2020/12/20 07:51:24;;;;;;;29.50;11.55;;;;;;;11.71;66.75;101474.56;5049363;28;20032;-81
2020/12/20 07:53:55;;;;;;;21.73;11.93;;;;;;;11.74;66.72;101482.34;5074618;28;20064;-82
2020/12/20 07:56:34;;;;;;;19.45;11.50;;;;;;;11.76;66.74;101479.44;5069211;28;20132;-82
2020/12/20 07:59:05;;;;;;;26.05;10.32;;;;;;;11.74;66.80;101482.34;5072845;28;20121;-82
2020/12/20 08:01:31;;;;;;;17.92;9.88;;;;;;;11.79;66.64;101487.25;5069577;28;20094;-81
2020/12/20 08:04:05;;;;;;;21.27;9.57;;;;;;;11.81;66.49;101496.91;5055676;28;20452;-81
2020/12/20 08:06:33;;;;;;;19.98;9.88;;;;;;;11.84;66.52;101495.69;5067395;28;20050;-80
2020/12/20 08:09:04;;;;;;;28.75;10.13;;;;;;;11.79;66.44;101495.41;5073382;28;20089;-82
2020/12/20 08:11:31;;;;;;;26.98;10.05;;;;;;;11.84;66.52;101498.41;5066212;28;20024;-82
2020/12/20 08:13:59;;;;;;;19.73;11.15;;;;;;;11.87;66.60;101505.38;5048377;28;20028;-81
2020/12/20 08:16:30;;;;;;;24.10;11.77;;;;;;;11.94;66.47;101509.03;5061976;28;20041;-82
2020/12/20 08:19:07;;;;;;;24.92;10.07;;;;;;;11.92;66.69;101505.63;5067239;28;20036;-83
2020/12/20 08:21:44;;;;;;;17.77;11.18;;;;;;;11.97;66.30;101497.75;5065153;28;20024;-81
2020/12/20 08:24:12;;;;;;;25.58;10.75;;;;;;;11.94;66.74;101509.03;5069475;28;20474;-82
2020/12/20 08:26:38;;;;;;;15.48;9.20;;;;;;;12.02;66.55;101508.09;5074202;28;20129;-82
2020/12/20 08:29:04;;;;;;;22.83;10.88;;;;;;;11.94;66.96;101504.47;5049338;28;20044;-83
2020/12/20 08:31:31;;;;;;;24.15;11.57;;;;;;;12.04;67.03;101512.34;5068742;28;20074;-82
2020/12/20 08:34:01;;;;;;;28.38;14.77;;;;;;;12.07;66.84;101511.13;5067997;28;20033;-81
2020/12/20 08:36:27;;;;;;;24.55;10.43;;;;;;;12.10;67.12;101502.56;5068121;28;20148;-81
2020/12/20 08:38:54;;;;;;;26.98;9.27;;;;;;;12.26;66.72;101504.22;5066780;28;20071;-82
2020/12/20 08:41:38;;;;;;;20.92;9.07;;;;;;;12.16;67.17;101502.63;5070535;28;20035;-82
2020/12/20 08:44:06;;;;;;;26.35;10.50;;;;;;;12.29;66.73;101509.28;5072048;28;20040;-81
2020/12/20 08:46:40;;;;;;;21.98;10.05;;;;;;;12.33;66.54;101513.34;5066377;28;20029;-82
2020/12/20 08:49:20;;;;;;;21.42;10.82;;;;;;;12.35;66.82;101501.19;5066757;28;20033;-82
2020/12/20 08:51:47;;;;;;;21.40;10.68;;;;;;;12.41;66.32;101504.19;5065109;28;20150;-82
2020/12/20 08:54:23;;;;;;;22.98;11.20;;;;;;;12.41;66.64;101510.50;5067940;28;20062;-82
2020/12/20 08:56:56;;;;;;;22.27;9.30;;;;;;;12.43;66.67;101510.28;5064522;28;20467;-81
2020/12/20 08:59:34;;;;;;;20.30;9.32;;;;;;;12.52;66.07;101506.41;5060362;28;20574;-81
2020/12/20 09:02:00;;;;;;;23.85;9.60;;;;;;;12.50;66.20;101514.78;5066984;28;20036;-81
2020/12/20 09:04:31;;;;;;;23.17;9.90;;;;;;;12.42;66.31;101520.38;5071009;28;20028;-82
2020/12/20 09:06:58;;;;;;;26.17;12.30;;;;;;;12.58;65.97;101521.19;5044825;28;20029;-82
2020/12/20 09:09:24;;;;;;;18.65;8.60;;;;;;;12.65;65.79;101519.34;5049226;28;20041;-82
2020/12/20 09:11:50;;;;;;;23.33;10.13;;;;;;;12.63;66.01;101530.44;5046849;28;20083;-80
2020/12/20 09:14:15;;;;;;;29.25;8.80;;;;;;;12.67;65.80;101529.03;5058832;28;20357;-82
2020/12/20 09:16:44;;;;;;;21.45;8.18;;;;;;;12.66;65.99;101532.78;5064752;28;20025;-81
2020/12/20 09:19:13;;;;;;;19.40;8.73;;;;;;;12.67;66.39;101534.50;5064858;28;20650;-82
2020/12/20 09:21:40;;;;;;;25.58;9.27;;;;;;;12.85;65.34;101528.59;5066177;28;20139;-81
2020/12/20 09:24:05;;;;;;;22.58;8.77;;;;;;;12.74;65.73;101534.56;5068447;28;20068;-82
2020/12/20 09:26:31;;;;;;;28.10;10.05;;;;;;;12.63;66.08;101525.00;5053343;28;20037;-81
2020/12/20 09:28:56;;;;;;;24.85;9.90;;;;;;;12.88;65.49;101539.13;5064124;28;20025;-82
2020/12/20 09:31:21;;;;;;;24.15;7.28;;;;;;;13.02;65.14;101540.13;5062730;28;21091;-81
2020/12/20 09:33:49;;;;;;;30.58;8.85;;;;;;;13.02;65.13;101542.84;5066115;28;20031;-82
2020/12/20 09:36:25;;;;;;;26.23;9.13;;;;;;;13.21;64.70;101546.78;5073843;28;20036;-82
2020/12/20 09:38:56;;;;;;;26.63;8.27;;;;;;;13.24;64.42;101551.03;5062969;28;20449;-81
2020/12/20 09:41:23;;;;;;;;;;;;;;;13.15;64.64;101541.28;5048053;28;20078;-82
2020/12/20 09:43:50;;;;;;;25.23;8.07;;;;;;;13.26;64.25;101541.56;5064540;28;19925;-81
2020/12/20 09:46:21;;;;;;;21.95;7.00;;;;;;;13.27;64.31;101550.63;5048144;28;20493;-82
2020/12/20 09:48:48;;;;;;;20.50;6.93;;;;;;;13.45;63.84;101549.31;5064053;28;20028;-81
2020/12/20 09:51:13;;;;;;;20.52;7.90;;;;;;;13.34;64.03;101548.81;5070343;28;20203;-83
2020/12/20 09:53:39;;;;;;;23.88;7.75;;;;;;;13.31;64.20;101545.59;5064155;28;20035;-82
2020/12/20 09:56:04;;;;;;;25.10;7.50;;;;;;;13.37;63.70;101559.34;5047784;28;20029;-79
2020/12/20 09:58:30;;;;;;;22.63;6.75;;;;;;;13.43;63.54;101549.53;5048189;28;20051;-80
2020/12/20 10:00:55;;;;;;;25.50;8.13;;;;;;;13.42;63.53;101550.56;5048558;28;20024;-81
2020/12/20 10:03:20;;;;;;;21.90;8.57;;;;;;;13.46;63.41;101548.28;5065823;28;20508;-81
2020/12/20 10:05:46;;;;;;;28.17;8.93;;;;;;;13.46;63.28;101551.88;5063853;28;20517;-81
2020/12/20 10:08:15;;;;;;;24.67;8.05;;;;;;;13.43;63.43;101542.16;5045366;28;20044;-81
2020/12/20 10:10:41;;;;;;;27.52;8.48;;;;;;;13.42;63.31;101545.09;5064532;28;20045;-82
2020/12/20 10:13:06;;;;;;;28.35;7.65;;;;;;;13.35;63.52;101538.75;5064981;28;20033;-81
2020/12/20 10:15:32;;;;;;;26.23;7.90;;;;;;;13.43;63.32;101541.31;5044383;28;20387;-81
2020/12/20 10:18:01;;;;;;;24.17;6.78;;;;;;;13.51;63.07;101534.88;5066651;28;20040;-81
2020/12/20 10:20:28;;;;;;;20.33;7.10;;;;;;;13.59;62.70;101541.03;5067099;28;20040;-81
2020/12/20 10:22:53;;;;;;;21.33;8.45;;;;;;;13.58;62.93;101543.97;5058892;28;20111;-82
2020/12/20 10:25:18;;;;;;;20.23;8.57;;;;;;;13.75;62.58;101542.63;5067589;28;20628;-81
2020/12/20 10:27:44;;;;;;;26.15;8.05;;;;;;;13.86;62.48;101551.31;5044949;28;20588;-81
2020/12/20 10:30:10;;;;;;;25.48;8.18;;;;;;;13.87;61.86;101536.56;5071804;28;20043;-82
2020/12/20 10:32:35;;;;;;;22.10;7.63;;;;;;;13.88;61.94;101538.28;5046717;28;20028;-80
2020/12/20 10:35:01;;;;;;;21.65;9.15;;;;;;;13.97;61.83;101535.16;5054550;28;20069;-81
2020/12/20 10:37:26;;;;;;;24.20;8.20;;;;;;;14.26;61.53;101537.84;5047091;28;20047;-81
2020/12/20 10:39:51;;;;;;;25.05;8.85;;;;;;;14.71;60.78;101532.75;5051420;28;20499;-81
2020/12/20 10:42:17;;;;;;;23.48;8.23;;;;;;;14.92;59.78;101529.03;5069907;28;20093;-81
2020/12/20 10:44:42;;;;;;;24.70;8.57;;;;;;;15.03;58.59;101531.13;5071250;28;20048;-80
2020/12/20 10:47:08;;;;;;;19.50;8.25;;;;;;;15.32;58.49;101533.66;5052137;28;20032;-82
2020/12/20 10:49:34;;;;;;;19.27;7.53;;;;;;;15.53;58.21;101530.69;5068265;28;20044;-81
2020/12/20 10:51:59;;;;;;;23.50;7.78;;;;;;;15.63;57.92;101524.81;5067848;28;20395;-82
2020/12/20 10:54:29;;;;;;;24.08;8.00;;;;;;;15.77;57.90;101525.66;5045440;28;20527;-81
2020/12/20 10:56:58;;;;;;;21.67;7.72;;;;;;;15.87;57.19;101527.94;5063654;28;20032;-81
2020/12/20 10:59:23;;;;;;;20.75;8.65;;;;;;;16.05;56.36;101533.59;5064117;28;20521;-82
2020/12/20 11:01:49;;;;;;;24.58;7.30;;;;;;;15.74;56.49;101526.88;5059438;28;20032;-81
2020/12/20 11:04:15;;;;;;;17.75;5.85;;;;;;;15.96;56.44;101528.53;5052777;28;20037;-83
2020/12/20 11:06:40;;;;;;;17.73;7.22;;;;;;;16.01;56.78;101535.06;5051799;28;20044;-82
2020/12/20 11:09:06;;;;;;;19.98;6.00;;;;;;;15.79;56.50;101522.69;5072430;28;20037;-82
2020/12/20 11:11:32;;;;;;;27.55;6.90;;;;;;;15.55;56.73;101525.88;5054482;28;20043;-81
2020/12/20 11:13:59;;;;;;;21.25;5.93;;;;;;;15.39;56.95;101526.28;5070501;28;20036;-81
2020/12/20 11:16:24;;;;;;;30.63;6.28;;;;;;;14.99;58.02;101505.19;5071078;28;20509;-82
2020/12/20 11:18:50;;;;;;;25.30;6.75;;;;;;;15.15;58.15;101519.53;5047467;28;20040;-82